Time;durP1;ratioP1;P1;durP2;ratioP2;P2;SDS_P1;SDS_P2;PMS_P1;PMS_P2;Temp;Humidity;BMP_temperature;BMP_pressure;BME280_temperature;BME280_humidity;BME280_pressure;Samples;Min_cycle;Max_cycle;Signal;HPM_P1;HPM_P2
2022/11/21 00:00:31;;;;;;;25.48;15.52;;;3.50;70.20;;;;;;2364696;53;21712;-57
2022/11/21 00:03:00;;;;;;;23.95;16.48;;;3.50;70.40;;;;;;2344921;57;21659;-58
2022/11/21 00:05:28;;;;;;;26.45;16.27;;;3.40;70.70;;;;;;2345464;57;21035;-52
2022/11/21 00:07:56;;;;;;;23.40;15.85;;;3.40;70.70;;;;;;2346172;57;21566;-55
2022/11/21 00:10:23;;;;;;;25.37;17.12;;;3.40;70.60;;;;;;2345944;57;21194;-51
2022/11/21 00:12:54;;;;;;;25.83;15.93;;;3.40;70.70;;;;;;2344693;57;21566;-53
2022/11/21 00:15:21;;;;;;;26.55;16.58;;;3.40;70.70;;;;;;2344602;57;21598;-57
2022/11/21 00:17:49;;;;;;;27.65;16.87;;;3.40;70.70;;;;;;2349965;53;21642;-55
2022/11/21 00:20:19;;;;;;;21.90;15.02;;;3.40;70.50;;;;;;2344946;57;21594;-52
2022/11/21 00:22:47;;;;;;;25.80;15.52;;;3.40;70.30;;;;;;2344575;57;21175;-55
2022/11/21 00:25:15;;;;;;;26.17;16.10;;;3.40;70.20;;;;;;2346551;57;21507;-51
2022/11/21 00:27:42;;;;;;;25.80;15.98;;;3.40;70.10;;;;;;2346496;57;21072;-54
2022/11/21 00:30:11;;;;;;;27.77;16.62;;;3.30;70.70;;;;;;2346556;57;21027;-56
2022/11/21 00:32:38;;;;;;;25.75;16.25;;;3.30;69.90;;;;;;2344952;57;21154;-58
2022/11/21 00:35:07;;;;;;;27.62;16.50;;;3.30;69.90;;;;;;2352177;53;21056;-58
2022/11/21 00:37:34;;;;;;;25.08;16.12;;;3.30;69.70;;;;;;2362419;53;21677;-58
2022/11/21 00:40:02;;;;;;;28.85;15.82;;;3.30;69.50;;;;;;2345413;57;21055;-54
2022/11/21 00:42:29;;;;;;;28.67;15.48;;;3.30;69.50;;;;;;2345085;57;21549;-58
2022/11/21 00:44:56;;;;;;;23.75;16.20;;;3.20;69.40;;;;;;2345445;57;21047;-56
2022/11/21 00:47:23;;;;;;;25.45;15.45;;;3.20;69.30;;;;;;2346049;57;21138;-56
2022/11/21 00:49:50;;;;;;;25.42;15.30;;;3.20;69.30;;;;;;2345004;57;21079;-58
2022/11/21 00:52:18;;;;;;;24.58;14.75;;;3.20;69.20;;;;;;2343924;57;21150;-57
2022/11/21 00:54:45;;;;;;;25.75;15.57;;;3.20;69.30;;;;;;2345277;57;21051;-55
2022/11/21 00:57:12;;;;;;;24.40;15.15;;;3.20;69.30;;;;;;2345454;57;21047;-57
2022/11/21 00:59:39;;;;;;;24.35;15.65;;;3.10;69.30;;;;;;2345054;57;21122;-60
2022/11/21 01:02:06;;;;;;;24.70;15.57;;;3.10;69.40;;;;;;2345143;57;21043;-58
2022/11/21 01:04:34;;;;;;;26.70;16.17;;;3.10;69.20;;;;;;2345420;57;21044;-57
2022/11/21 01:07:01;;;;;;;29.10;14.93;;;3.10;69.10;;;;;;2357909;53;21060;-56
2022/11/21 01:09:29;;;;;;;27.45;15.88;;;3.10;69.10;;;;;;2345450;57;21531;-58
2022/11/21 01:11:56;;;;;;;24.05;15.25;;;3.00;69.10;;;;;;2345147;57;21117;-57
2022/11/21 01:14:23;;;;;;;24.25;14.90;;;3.00;69.10;;;;;;2345023;57;21131;-57
2022/11/21 01:16:51;;;;;;;23.25;15.13;;;3.00;69.20;;;;;;2344349;57;22027;-57
2022/11/21 01:19:18;;;;;;;29.50;17.45;;;3.00;69.40;;;;;;2344387;57;21122;-59
2022/11/21 01:21:45;;;;;;;28.95;16.23;;;2.90;69.40;;;;;;2345806;57;21090;-58
2022/11/21 01:24:12;;;;;;;24.55;17.00;;;2.90;69.60;;;;;;2345400;57;21079;-55
2022/11/21 01:26:39;;;;;;;23.60;15.18;;;2.90;69.90;;;;;;2345416;57;21386;-55
2022/11/21 01:29:07;;;;;;;22.98;15.23;;;2.90;70.10;;;;;;2344929;57;21063;-58
2022/11/21 01:31:36;;;;;;;25.08;15.85;;;2.90;70.50;;;;;;2344476;57;21086;-57
2022/11/21 01:34:03;;;;;;;23.17;15.90;;;2.90;70.50;;;;;;2359713;53;21571;-57
2022/11/21 01:36:32;;;;;;;25.45;15.68;;;3.00;70.60;;;;;;2344911;57;21102;-55
2022/11/21 01:39:01;;;;;;;27.40;16.65;;;2.90;70.60;;;;;;2348527;53;21645;-57
2022/11/21 01:41:32;;;;;;;22.67;15.38;;;2.90;70.50;;;;;;2346453;57;21820;-55
2022/11/21 01:44:00;;;;;;;23.17;15.85;;;2.90;70.30;;;;;;2346560;57;21031;-57
2022/11/21 01:46:27;;;;;;;25.30;16.65;;;2.90;70.50;;;;;;2345460;57;21103;-58
2022/11/21 01:48:58;;;;;;;28.05;15.13;;;2.90;70.90;;;;;;2345019;57;21055;-59
2022/11/21 01:51:30;;;;;;;22.17;14.07;;;2.90;71.10;;;;;;2345201;57;21059;-58
2022/11/21 01:54:02;;;;;;;24.35;14.95;;;2.90;71.10;;;;;;2344557;57;21780;-53
2022/11/21 01:56:36;;;;;;;23.33;14.75;;;3.00;71.20;;;;;;2344962;57;21063;-56
2022/11/21 01:59:07;;;;;;;22.83;15.10;;;3.00;71.20;;;;;;2346053;57;21594;-57
2022/11/21 02:01:35;;;;;;;24.15;14.50;;;3.00;71.20;;;;;;2393193;53;21519;-57
2022/11/21 02:04:04;;;;;;;25.60;14.77;;;3.00;71.10;;;;;;2344158;57;21106;-58
2022/11/21 02:06:32;;;;;;;22.17;13.98;;;3.00;71.30;;;;;;2344900;57;21638;-56
2022/11/21 02:09:00;;;;;;;23.70;14.70;;;3.00;71.20;;;;;;2344618;57;21067;-57
2022/11/21 02:11:33;;;;;;;23.00;13.93;;;3.00;71.20;;;;;;2344196;57;21592;-56
2022/11/21 02:14:00;;;;;;;19.60;13.43;;;3.00;71.20;;;;;;2345142;57;21059;-54
2022/11/21 02:16:28;;;;;;;21.05;13.32;;;3.10;71.40;;;;;;2344735;57;21617;-58
2022/11/21 02:18:55;;;;;;;18.83;12.23;;;3.10;71.50;;;;;;2346563;57;21027;-56
2022/11/21 02:21:32;;;;;;;17.92;12.13;;;3.10;71.60;;;;;;2346171;57;21504;-55
2022/11/21 02:24:04;;;;;;;20.75;13.32;;;3.10;71.70;;;;;;2346609;57;21019;-57
2022/11/21 02:26:32;;;;;;;19.98;12.75;;;3.20;71.70;;;;;;2372719;53;21596;-55
2022/11/21 02:28:59;;;;;;;22.52;14.23;;;3.20;71.40;;;;;;2344701;57;21119;-55
2022/11/21 02:31:26;;;;;;;20.65;13.13;;;3.20;71.30;;;;;;2345417;57;22148;-58
2022/11/21 02:33:53;;;;;;;17.40;12.35;;;3.20;71.10;;;;;;2344691;57;21059;-57
2022/11/21 02:39:32;;;;;;;18.62;12.35;;;3.20;71.10;;;;;;2356104;57;22050;-56
2022/11/21 02:42:04;;;;;;;18.45;12.18;;;3.20;70.90;;;;;;2346218;57;22211;-56
2022/11/21 02:44:39;;;;;;;15.93;11.45;;;3.20;70.90;;;;;;2345261;57;21090;-57
2022/11/21 02:47:06;;;;;;;19.62;12.82;;;3.20;70.80;;;;;;2343840;57;21054;-58
2022/11/21 02:49:47;;;;;;;18.92;12.32;;;3.20;70.80;;;;;;2351474;53;21125;-58
2022/11/21 02:52:15;;;;;;;15.55;11.57;;;3.20;70.80;;;;;;2344899;57;21672;-57
2022/11/21 02:54:42;;;;;;;18.52;11.95;;;3.20;70.80;;;;;;2345129;57;21070;-58
2022/11/21 02:57:09;;;;;;;17.58;11.60;;;3.20;70.80;;;;;;2345614;57;21046;-59
2022/11/21 02:59:36;;;;;;;16.08;11.07;;;3.20;70.90;;;;;;2345131;57;21529;-60
2022/11/21 03:02:03;;;;;;;16.98;11.52;;;3.20;71.10;;;;;;2368321;53;21126;-56
2022/11/21 03:04:30;;;;;;;16.45;12.05;;;3.20;71.00;;;;;;2345543;57;21046;-58
2022/11/21 03:06:57;;;;;;;15.85;10.82;;;3.20;70.90;;;;;;2344295;57;21061;-60
2022/11/21 03:09:24;;;;;;;15.05;11.10;;;3.20;70.90;;;;;;2345478;57;21589;-58
2022/11/21 03:11:52;;;;;;;17.17;11.15;;;3.20;70.90;;;;;;2345182;57;21300;-58
2022/11/21 03:14:19;;;;;;;17.25;11.00;;;3.20;70.60;;;;;;2345804;57;21093;-57
2022/11/21 03:16:46;;;;;;;16.23;10.90;;;3.20;70.40;;;;;;2373070;53;21058;-57
2022/11/21 03:19:13;;;;;;;16.58;10.32;;;3.20;70.30;;;;;;2345704;57;21533;-57
2022/11/21 03:21:40;;;;;;;16.20;10.48;;;3.20;70.00;;;;;;2345334;57;21054;-59
2022/11/21 03:24:08;;;;;;;14.65;10.38;;;3.20;69.90;;;;;;2343086;57;21038;-55
2022/11/21 03:26:35;;;;;;;16.10;10.32;;;3.20;69.70;;;;;;2345180;57;21070;-59
2022/11/21 03:29:03;;;;;;;16.00;9.65;;;3.20;69.60;;;;;;2345241;57;21557;-57
2022/11/21 03:31:30;;;;;;;17.75;10.52;;;3.20;69.50;;;;;;2388228;53;21054;-59
2022/11/21 03:33:57;;;;;;;16.17;10.75;;;3.20;69.50;;;;;;2344577;57;21038;-59
2022/11/21 03:36:24;;;;;;;15.73;10.32;;;3.20;69.50;;;;;;2345062;57;21054;-59
2022/11/21 03:38:51;;;;;;;16.55;10.43;;;3.20;69.50;;;;;;2345269;57;21117;-58
2022/11/21 03:41:30;;;;;;;15.27;10.15;;;3.10;69.40;;;;;;2343198;57;21110;-58
2022/11/21 03:43:58;;;;;;;15.85;10.25;;;3.10;69.30;;;;;;2344776;57;21042;-57
2022/11/21 03:46:26;;;;;;;15.48;10.45;;;3.10;69.30;;;;;;2345654;57;21185;-57
2022/11/21 03:48:53;;;;;;;17.02;11.05;;;3.10;69.20;;;;;;2345161;57;21561;-56
2022/11/21 03:51:21;;;;;;;14.63;10.25;;;3.10;69.20;;;;;;2344926;57;21062;-56
2022/11/21 03:53:48;;;;;;;17.77;11.50;;;3.00;69.10;;;;;;2345037;57;21073;-52
2022/11/21 03:56:16;;;;;;;13.68;9.88;;;3.00;69.10;;;;;;2344359;57;21671;-56
2022/11/21 03:58:44;;;;;;;14.13;9.32;;;3.00;69.10;;;;;;2343047;57;21544;-56
2022/11/21 04:01:12;;;;;;;14.93;9.48;;;2.90;69.10;;;;;;2343415;57;22095;-58
2022/11/21 04:03:39;;;;;;;16.73;10.63;;;3.00;69.10;;;;;;2344210;57;21541;-55
2022/11/21 04:06:07;;;;;;;16.83;9.98;;;3.00;69.10;;;;;;2344260;57;21566;-57
2022/11/21 04:08:34;;;;;;;16.42;10.98;;;2.90;68.90;;;;;;2344416;57;21582;-56
2022/11/21 04:11:02;;;;;;;15.77;10.55;;;2.90;68.90;;;;;;2367998;53;21160;-57
2022/11/21 04:13:30;;;;;;;14.60;10.13;;;2.90;68.90;;;;;;2344029;57;21566;-57
2022/11/21 04:15:57;;;;;;;18.62;12.02;;;2.80;69.00;;;;;;2343601;57;21050;-58
2022/11/21 04:18:24;;;;;;;17.80;11.50;;;2.80;69.00;;;;;;2344308;57;21042;-54
2022/11/21 04:20:57;;;;;;;20.85;11.68;;;2.80;69.00;;;;;;2344575;57;21046;-57
2022/11/21 04:23:24;;;;;;;18.85;11.85;;;2.70;68.90;;;;;;2344965;57;21597;-53
2022/11/21 04:25:51;;;;;;;18.70;11.23;;;2.70;69.00;;;;;;2344023;57;21712;-57
2022/11/21 04:28:19;;;;;;;22.05;12.23;;;2.70;69.00;;;;;;2392066;53;21588;-58
2022/11/21 04:30:46;;;;;;;20.45;10.95;;;2.70;69.20;;;;;;2344104;57;21617;-58
2022/11/21 04:33:15;;;;;;;22.25;12.80;;;2.60;69.30;;;;;;2373457;53;21094;-56
2022/11/21 04:35:43;;;;;;;16.98;11.50;;;2.60;70.10;;;;;;2343685;57;21518;-52
2022/11/21 04:38:10;;;;;;;18.00;11.45;;;2.60;69.40;;;;;;2344003;57;21101;-57
2022/11/21 04:40:38;;;;;;;19.62;11.77;;;2.60;69.40;;;;;;2344295;57;21117;-58
2022/11/21 04:43:05;;;;;;;18.83;11.12;;;2.60;69.40;;;;;;2344679;57;21116;-58
2022/11/21 04:45:32;;;;;;;20.67;12.13;;;2.60;69.60;;;;;;2344756;57;21106;-56
2022/11/21 04:47:59;;;;;;;19.50;12.30;;;2.60;69.50;;;;;;2344144;57;21030;-57
2022/11/21 04:50:27;;;;;;;20.50;12.32;;;2.50;69.30;;;;;;2343514;57;21651;-57
2022/11/21 04:52:55;;;;;;;18.33;11.80;;;2.50;69.30;;;;;;2344235;57;21117;-55
2022/11/21 04:55:24;;;;;;;18.15;11.43;;;2.50;69.30;;;;;;2344563;57;21616;-57
2022/11/21 04:57:52;;;;;;;21.23;11.98;;;2.50;69.40;;;;;;2344486;57;21553;-57
2022/11/21 05:00:20;;;;;;;18.02;10.93;;;2.50;69.50;;;;;;2344714;57;21573;-55
2022/11/21 05:02:47;;;;;;;18.10;11.65;;;2.50;69.80;;;;;;2354477;53;21133;-55
2022/11/21 05:05:15;;;;;;;21.02;11.50;;;2.40;69.90;;;;;;2343711;57;21050;-58
2022/11/21 05:07:42;;;;;;;21.00;11.75;;;2.40;70.00;;;;;;2344333;57;21086;-58
2022/11/21 05:10:10;;;;;;;17.90;11.55;;;2.40;70.10;;;;;;2344777;57;21094;-57
2022/11/21 05:15:22;;;;;;;24.02;12.18;;;2.30;70.10;;;;;;2343934;53;21006;-54
2022/11/21 05:17:50;;;;;;;19.17;12.82;;;2.40;70.20;;;;;;2376973;53;21534;-56
2022/11/21 05:20:17;;;;;;;22.02;12.98;;;2.30;70.10;;;;;;2344179;57;21038;-53
2022/11/21 05:22:48;;;;;;;19.50;13.00;;;2.30;70.20;;;;;;2344784;57;21034;-57
2022/11/21 05:25:15;;;;;;;22.25;13.18;;;2.30;70.30;;;;;;2344908;57;21542;-58
2022/11/21 05:27:43;;;;;;;24.05;14.23;;;2.30;70.40;;;;;;2345404;57;21102;-56
2022/11/21 05:30:12;;;;;;;23.48;13.95;;;2.30;70.60;;;;;;2379740;53;21300;-58
2022/11/21 05:32:39;;;;;;;23.40;12.85;;;2.30;70.80;;;;;;2344590;57;21101;-54
2022/11/21 05:35:08;;;;;;;29.25;16.00;;;2.30;70.90;;;;;;2344962;57;21050;-56
2022/11/21 05:37:35;;;;;;;23.17;13.68;;;2.30;71.10;;;;;;2344102;57;21601;-55
2022/11/21 05:40:03;;;;;;;23.02;12.60;;;2.30;71.30;;;;;;2343321;57;21042;-57
2022/11/21 05:45:17;;;;;;;26.92;15.68;;;2.30;71.70;;;;;;2345035;53;20987;-55
2022/11/21 05:47:44;;;;;;;24.20;14.48;;;2.30;71.60;;;;;;2344901;57;21535;-56
2022/11/21 05:50:11;;;;;;;23.73;14.20;;;2.30;71.60;;;;;;2344723;57;21042;-56
2022/11/21 05:52:38;;;;;;;30.20;16.12;;;2.30;71.60;;;;;;2344099;57;21616;-56
2022/11/21 05:55:07;;;;;;;26.02;14.75;;;2.30;71.60;;;;;;2376244;53;21047;-58
2022/11/21 05:57:34;;;;;;;26.70;15.82;;;2.30;71.50;;;;;;2343109;57;21604;-58
2022/11/21 06:00:03;;;;;;;25.58;15.07;;;2.30;71.70;;;;;;2343145;57;21125;-55
2022/11/21 06:05:16;;;;;;;26.02;14.82;;;2.30;71.90;;;;;;2570112;53;20937;-56
2022/11/21 06:07:43;;;;;;;28.25;17.10;;;2.40;71.80;;;;;;2357724;53;21034;-58
2022/11/21 06:10:10;;;;;;;30.40;16.48;;;2.40;71.60;;;;;;2344256;57;21042;-56
2022/11/21 06:12:37;;;;;;;28.60;15.48;;;2.30;71.50;;;;;;2342811;57;21641;-58
2022/11/21 06:15:06;;;;;;;25.73;14.55;;;2.40;71.40;;;;;;2344530;57;21089;-55
2022/11/21 06:17:33;;;;;;;25.83;14.70;;;2.40;71.20;;;;;;2343643;57;21142;-57
2022/11/21 06:20:00;;;;;;;22.52;12.82;;;2.40;71.10;;;;;;2345418;57;21039;-56
2022/11/21 06:22:27;;;;;;;22.62;13.35;;;2.40;71.60;;;;;;2344654;57;21598;-57
2022/11/21 06:24:54;;;;;;;23.00;14.18;;;2.40;70.90;;;;;;2344869;57;21026;-54
2022/11/21 06:27:22;;;;;;;27.23;15.82;;;2.40;70.90;;;;;;2344615;57;21034;-56
2022/11/21 06:29:49;;;;;;;31.55;16.98;;;2.40;71.50;;;;;;2343671;57;21042;-53
2022/11/21 06:32:16;;;;;;;27.25;15.15;;;2.40;70.80;;;;;;2480512;52;21518;-51
2022/11/21 06:34:43;;;;;;;32.10;16.45;;;2.40;71.00;;;;;;2375923;56;21141;-49
2022/11/21 06:37:10;;;;;;;32.13;16.12;;;2.30;71.10;;;;;;2376266;56;21018;-49
2022/11/21 06:39:37;;;;;;;36.20;17.73;;;2.30;71.40;;;;;;2376145;56;21022;-50
2022/11/21 06:42:05;;;;;;;34.03;17.25;;;2.30;71.80;;;;;;2375217;56;21098;-49
2022/11/21 06:44:32;;;;;;;36.35;17.25;;;2.30;71.90;;;;;;2374207;56;21122;-48
2022/11/21 06:47:00;;;;;;;41.78;17.85;;;2.30;72.70;;;;;;2374239;56;21604;-50
2022/11/21 06:49:27;;;;;;;37.03;19.08;;;2.30;71.80;;;;;;2373833;56;21019;-48
2022/11/21 06:51:54;;;;;;;44.78;18.08;;;2.30;72.00;;;;;;2374348;56;21531;-47
2022/11/21 06:54:21;;;;;;;44.50;19.45;;;2.30;72.20;;;;;;2374866;56;21595;-47
2022/11/21 06:56:52;;;;;;;44.92;19.55;;;2.30;72.20;;;;;;2375413;56;21030;-49
2022/11/21 06:59:19;;;;;;;53.55;20.58;;;2.30;72.20;;;;;;2375148;56;21538;-49
2022/11/21 07:01:46;;;;;;;49.67;21.55;;;2.30;72.30;;;;;;2373428;56;21035;-51
2022/11/21 07:06:49;;;;;;;43.83;17.87;;;2.30;72.30;;;;;;2355479;57;22118;-50
2022/11/21 07:09:17;;;;;;;52.72;21.37;;;2.30;72.50;;;;;;2347191;57;21049;-49
2022/11/21 07:11:44;;;;;;;44.90;19.62;;;2.40;72.60;;;;;;2346603;57;21057;-46
2022/11/21 07:14:11;;;;;;;46.80;21.23;;;2.40;72.70;;;;;;2345537;57;21728;-50
2022/11/21 07:16:38;;;;;;;57.13;20.77;;;2.40;72.80;;;;;;2345826;57;21137;-51
2022/11/21 07:19:05;;;;;;;42.15;19.02;;;2.40;72.90;;;;;;2345142;57;21050;-49
2022/11/21 07:21:33;;;;;;;42.75;18.33;;;2.40;72.90;;;;;;2345645;57;21113;-49
2022/11/21 07:24:00;;;;;;;37.72;17.80;;;2.40;72.90;;;;;;2344801;57;21057;-49
2022/11/21 07:26:27;;;;;;;43.90;19.65;;;2.40;72.90;;;;;;2344677;57;21058;-47
2022/11/21 07:28:54;;;;;;;58.13;20.25;;;2.50;73.20;;;;;;2344234;57;21700;-49
2022/11/21 07:31:21;;;;;;;44.67;18.92;;;2.50;73.10;;;;;;2344769;57;21129;-47
2022/11/21 07:33:49;;;;;;;46.92;20.62;;;2.50;73.30;;;;;;2345584;57;21077;-50
2022/11/21 07:36:16;;;;;;;51.15;21.12;;;2.50;73.00;;;;;;2345319;57;21050;-48
2022/11/21 07:38:45;;;;;;;50.03;21.73;;;2.50;72.90;;;;;;2345270;57;21548;-49
2022/11/21 07:41:12;;;;;;;41.92;19.98;;;2.50;72.90;;;;;;2343692;57;21561;-49
2022/11/21 07:43:39;;;;;;;41.10;17.50;;;2.50;72.80;;;;;;2344667;57;21324;-48
2022/11/21 07:46:06;;;;;;;42.17;19.45;;;2.50;72.80;;;;;;2344897;57;21066;-47
2022/11/21 07:48:33;;;;;;;35.38;17.70;;;2.50;72.90;;;;;;2344731;57;21070;-47
2022/11/21 07:51:03;;;;;;;44.15;19.62;;;2.50;73.20;;;;;;2345099;57;21549;-47
2022/11/21 07:53:31;;;;;;;43.17;21.65;;;2.50;73.50;;;;;;2346193;57;21570;-49
2022/11/21 07:55:58;;;;;;;45.38;21.37;;;2.50;73.50;;;;;;2346116;57;21061;-49
2022/11/21 07:58:26;;;;;;;45.80;22.35;;;2.60;73.60;;;;;;2345733;57;21547;-45
2022/11/21 08:00:53;;;;;;;45.90;19.50;;;2.60;73.60;;;;;;2344952;57;21112;-49
2022/11/21 08:03:21;;;;;;;40.30;18.73;;;2.60;73.60;;;;;;2344396;57;21596;-48
2022/11/21 08:05:48;;;;;;;43.85;19.70;;;2.70;73.70;;;;;;2344765;57;21118;-46
2022/11/21 08:08:16;;;;;;;51.75;22.42;;;2.70;73.60;;;;;;2344929;57;21054;-48
2022/11/21 08:10:45;;;;;;;49.88;21.83;;;2.70;73.50;;;;;;2344844;57;21148;-51
2022/11/21 08:13:13;;;;;;;50.45;21.95;;;2.70;73.50;;;;;;2344800;57;21530;-50
2022/11/21 08:15:40;;;;;;;49.05;22.75;;;2.70;73.40;;;;;;2344391;57;21590;-48
2022/11/21 08:18:09;;;;;;;51.08;23.08;;;2.70;73.20;;;;;;2343982;57;21133;-48
2022/11/21 08:20:36;;;;;;;55.60;23.62;;;2.80;73.20;;;;;;2343890;57;21034;-48
2022/11/21 08:23:03;;;;;;;54.25;22.65;;;2.80;73.10;;;;;;2343747;57;21149;-46
2022/11/21 08:25:30;;;;;;;60.10;23.60;;;2.80;73.10;;;;;;2343900;57;21133;-49
2022/11/21 08:27:58;;;;;;;59.58;24.08;;;2.80;73.20;;;;;;2342908;57;21902;-48
2022/11/21 08:30:26;;;;;;;48.83;22.75;;;2.80;73.10;;;;;;2343960;57;21210;-46
2022/11/21 08:32:53;;;;;;;56.15;23.20;;;2.80;73.10;;;;;;2342740;57;21050;-48
2022/11/21 08:35:20;;;;;;;57.30;25.37;;;2.80;73.00;;;;;;2343635;57;21105;-46
2022/11/21 08:37:47;;;;;;;52.53;22.20;;;2.80;73.20;;;;;;2344029;57;21133;-47
2022/11/21 08:40:15;;;;;;;54.95;22.77;;;2.80;73.50;;;;;;2343923;57;21604;-46
2022/11/21 08:42:42;;;;;;;52.15;23.17;;;2.90;73.70;;;;;;2343586;57;21054;-47
2022/11/21 08:45:10;;;;;;;55.85;22.90;;;2.90;73.80;;;;;;2343462;57;21073;-45
2022/11/21 08:47:37;;;;;;;46.50;20.37;;;2.90;73.80;;;;;;2344502;57;21089;-46
2022/11/21 08:50:06;;;;;;;49.47;20.65;;;2.90;73.80;;;;;;2343680;57;21057;-46
2022/11/21 08:52:33;;;;;;;40.55;19.52;;;2.90;73.70;;;;;;2344191;57;21121;-47
2022/11/21 08:55:01;;;;;;;42.03;19.48;;;2.90;73.80;;;;;;2343982;57;21673;-47
2022/11/21 08:57:30;;;;;;;50.47;21.15;;;3.00;73.70;;;;;;2343728;57;21050;-49
2022/11/21 08:59:57;;;;;;;44.03;21.98;;;3.00;73.40;;;;;;2343795;57;21133;-47
2022/11/21 09:02:24;;;;;;;44.55;19.85;;;3.00;73.10;;;;;;2342750;57;21122;-47
2022/11/21 09:04:52;;;;;;;41.60;19.55;;;3.00;73.10;;;;;;2342821;57;21062;-46
2022/11/21 09:07:19;;;;;;;41.78;19.77;;;3.00;73.30;;;;;;2343546;57;21129;-46
2022/11/21 09:09:46;;;;;;;39.38;18.42;;;3.00;73.30;;;;;;2344012;57;21617;-49
2022/11/21 09:12:13;;;;;;;40.85;20.05;;;3.00;73.10;;;;;;2343387;57;21688;-46
2022/11/21 09:20:11;;;;;;;45.35;19.90;;;3.00;72.70;;;;;;2344080;57;21034;-49
2022/11/21 09:22:38;;;;;;;44.15;21.90;;;3.00;72.40;;;;;;2345079;57;21570;-50
2022/11/21 09:25:07;;;;;;;43.05;20.73;;;3.00;72.60;;;;;;2345001;57;21161;-48
2022/11/21 09:27:34;;;;;;;44.97;19.77;;;3.00;72.80;;;;;;2341237;57;21046;-48
2022/11/21 09:30:01;;;;;;;45.20;21.40;;;3.00;72.90;;;;;;2343301;57;21058;-48
2022/11/21 09:32:29;;;;;;;44.45;21.02;;;3.00;73.00;;;;;;2344521;57;21550;-49
2022/11/21 09:34:56;;;;;;;46.30;20.67;;;3.00;72.90;;;;;;2344883;57;21125;-48
2022/11/21 09:37:23;;;;;;;40.22;19.27;;;3.10;73.00;;;;;;2343314;57;21140;-51
2022/11/21 09:39:50;;;;;;;43.05;20.52;;;3.00;72.60;;;;;;2343872;57;21054;-52
2022/11/21 09:42:37;;;;;;;41.70;20.67;;;3.10;72.70;;;;;;2341754;57;21039;-50
2022/11/21 09:45:09;;;;;;;37.63;20.52;;;3.10;72.70;;;;;;2345952;57;21609;-49
2022/11/21 09:47:42;;;;;;;42.62;19.02;;;3.10;72.90;;;;;;2345690;57;21053;-49
2022/11/21 09:50:28;;;;;;;47.27;22.03;;;3.10;73.00;;;;;;2342195;57;21026;-52
2022/11/21 09:53:02;;;;;;;39.78;19.52;;;3.10;72.90;;;;;;2340857;57;21042;-48
2022/11/21 09:55:40;;;;;;;44.53;21.23;;;3.10;72.80;;;;;;2342322;57;21053;-49
2022/11/21 09:58:21;;;;;;;37.55;19.12;;;3.10;72.90;;;;;;2341935;57;21041;-48
2022/11/21 10:00:51;;;;;;;39.20;18.77;;;3.10;72.90;;;;;;2342890;57;21676;-49
2022/11/21 10:03:20;;;;;;;39.63;20.02;;;3.10;72.90;;;;;;2341368;57;21022;-54
2022/11/21 10:05:51;;;;;;;40.75;20.58;;;3.10;72.90;;;;;;2341265;57;21657;-53
2022/11/21 10:08:29;;;;;;;42.70;20.55;;;3.10;72.80;;;;;;2341764;57;21542;-51
2022/11/21 10:11:05;;;;;;;35.67;18.42;;;3.10;72.70;;;;;;2343070;57;21046;-49
2022/11/21 10:13:45;;;;;;;45.08;21.55;;;3.10;72.70;;;;;;2342157;57;21033;-49
2022/11/21 10:16:20;;;;;;;42.95;22.25;;;3.10;72.50;;;;;;2343845;57;21585;-50
2022/11/21 10:19:04;;;;;;;42.62;21.15;;;3.10;72.50;;;;;;2343697;57;21137;-48
2022/11/21 10:21:50;;;;;;;44.90;22.55;;;3.10;72.60;;;;;;2343148;57;21613;-49
2022/11/21 10:24:32;;;;;;;43.97;21.92;;;3.10;72.70;;;;;;2343714;57;21537;-49
2022/11/21 10:27:03;;;;;;;42.67;21.65;;;3.10;72.70;;;;;;2344626;57;21038;-50
2022/11/21 10:29:34;;;;;;;51.97;23.60;;;3.10;73.00;;;;;;2343130;57;21005;-49
2022/11/21 10:32:10;;;;;;;56.53;25.75;;;3.10;73.20;;;;;;2342403;57;21046;-51
2022/11/21 10:34:38;;;;;;;46.72;22.73;;;3.10;73.40;;;;;;2339820;57;21050;-48
2022/11/21 10:37:14;;;;;;;44.22;21.87;;;3.20;73.60;;;;;;2341823;57;21218;-49
2022/11/21 10:39:45;;;;;;;38.20;20.15;;;3.20;73.70;;;;;;2341698;57;21815;-50
2022/11/21 10:42:32;;;;;;;42.53;22.05;;;3.20;73.60;;;;;;2342612;57;21542;-49
2022/11/21 10:45:18;;;;;;;43.35;21.60;;;3.20;73.60;;;;;;2341279;57;21625;-48
2022/11/21 10:47:47;;;;;;;40.22;21.90;;;3.30;73.70;;;;;;2342369;57;21038;-48
2022/11/21 10:58:42;;;;;;;39.88;21.23;;;3.30;73.70;;;;;;2298139;58;22669;-49
2022/11/21 11:01:21;;;;;;;39.20;20.30;;;3.40;74.10;;;;;;2316975;57;21064;-52
2022/11/21 11:04:03;;;;;;;34.45;19.87;;;3.40;74.10;;;;;;2344383;57;21390;-49
2022/11/21 11:06:30;;;;;;;36.57;20.47;;;3.50;74.20;;;;;;2344379;57;21650;-49
2022/11/21 11:08:57;;;;;;;39.45;20.33;;;3.50;74.30;;;;;;2346424;57;21030;-48
2022/11/21 11:11:25;;;;;;;39.85;21.40;;;3.60;74.10;;;;;;2346012;57;21073;-48
2022/11/21 11:13:57;;;;;;;37.97;20.12;;;3.60;74.10;;;;;;2342873;57;21093;-48
2022/11/21 11:16:25;;;;;;;40.75;21.10;;;3.60;74.10;;;;;;2344130;57;21716;-49
2022/11/21 11:18:58;;;;;;;36.20;19.42;;;3.70;74.10;;;;;;2344602;57;21615;-49
2022/11/21 11:21:27;;;;;;;33.53;18.73;;;3.70;74.20;;;;;;2344147;57;21113;-51
2022/11/21 11:24:06;;;;;;;36.45;20.12;;;3.70;74.00;;;;;;2344760;57;21628;-49
2022/11/21 11:26:33;;;;;;;33.72;18.40;;;3.80;74.30;;;;;;2344586;57;21584;-46
2022/11/21 11:29:13;;;;;;;35.20;20.15;;;3.80;74.30;;;;;;2345168;57;22132;-49
2022/11/21 11:31:41;;;;;;;37.78;20.20;;;3.90;74.30;;;;;;2342620;57;21049;-48
2022/11/21 11:34:13;;;;;;;36.45;20.48;;;3.90;74.20;;;;;;2344974;57;21061;-51
2022/11/21 11:36:52;;;;;;;38.45;20.88;;;4.00;74.10;;;;;;2344390;57;21061;-49
2022/11/21 11:39:32;;;;;;;38.70;20.08;;;4.00;73.80;;;;;;2344732;57;21553;-47
2022/11/21 11:48:21;;;;;;;33.60;18.83;;;4.10;73.70;;;;;;2344785;57;21533;-48
2022/11/21 11:50:51;;;;;;;36.03;19.55;;;4.10;73.60;;;;;;2344688;57;21069;-48
2022/11/21 11:53:21;;;;;;;36.92;19.42;;;4.10;73.60;;;;;;2345379;57;21144;-51
2022/11/21 11:55:53;;;;;;;34.35;19.58;;;4.10;73.70;;;;;;2344732;57;21058;-48
2022/11/21 11:58:26;;;;;;;35.38;19.20;;;4.20;74.00;;;;;;2344954;57;21070;-48
2022/11/21 12:03:39;;;;;;;33.88;19.98;;;4.20;74.00;;;;;;2353271;57;22106;-49
2022/11/21 12:06:13;;;;;;;32.30;19.00;;;4.30;73.70;;;;;;2346051;57;21050;-46
2022/11/21 12:08:51;;;;;;;34.33;18.42;;;4.30;73.70;;;;;;2345917;57;21600;-50
2022/11/21 12:17:11;;;;;;;29.98;17.33;;;4.40;73.70;;;;;;2327789;57;22111;-47
2022/11/21 12:19:39;;;;;;;31.67;16.92;;;4.50;73.70;;;;;;2345500;57;21069;-49
2022/11/21 12:22:10;;;;;;;28.23;16.90;;;4.50;73.80;;;;;;2345602;57;21045;-52
2022/11/21 12:24:37;;;;;;;29.35;16.90;;;4.60;74.00;;;;;;2346332;57;21489;-49
2022/11/21 12:27:19;;;;;;;28.67;17.17;;;4.60;74.00;;;;;;2346741;57;21022;-49
2022/11/21 12:30:19;;;;;;;28.15;17.25;;;4.70;74.10;;;;;;2346789;57;21028;-51
2022/11/21 12:32:56;;;;;;;28.95;16.30;;;4.70;74.00;;;;;;2407879;54;21128;-47
2022/11/21 12:35:36;;;;;;;27.42;14.52;;;4.80;73.90;;;;;;2267036;59;21096;-49
2022/11/21 12:38:15;;;;;;;23.80;14.38;;;4.80;74.10;;;;;;2266642;59;21113;-52
2022/11/21 12:40:53;;;;;;;22.23;13.43;;;4.80;74.00;;;;;;2266862;59;21734;-53
2022/11/21 12:43:34;;;;;;;23.73;13.73;;;5.00;74.10;;;;;;2265995;59;21616;-50
2022/11/21 12:46:09;;;;;;;26.02;14.52;;;5.00;74.10;;;;;;2267764;59;21584;-50
2022/11/21 12:55:08;;;;;;;19.08;11.48;;;5.20;73.50;;;;;;2265654;59;21596;-50
2022/11/21 13:00:19;;;;;;;20.65;12.20;;;5.30;73.30;;;;;;2299101;58;22166;-51
2022/11/21 13:03:06;;;;;;;19.52;11.88;;;5.40;72.90;;;;;;2277549;58;21129;-52
2022/11/21 13:05:36;;;;;;;18.52;11.15;;;5.40;72.80;;;;;;2291295;58;21113;-52
2022/11/21 13:08:07;;;;;;;17.60;11.52;;;5.40;72.50;;;;;;2291201;58;21672;-49
2022/11/21 13:10:35;;;;;;;19.50;11.70;;;5.50;72.30;;;;;;2290622;58;21593;-53
2022/11/21 13:13:13;;;;;;;16.67;10.63;;;5.50;72.20;;;;;;2294538;55;21132;-57
2022/11/21 13:15:49;;;;;;;21.67;12.73;;;5.50;72.20;;;;;;2239939;60;21559;-56
2022/11/21 13:18:21;;;;;;;18.30;11.18;;;5.50;71.70;;;;;;2240969;60;21212;-59
2022/11/21 13:20:50;;;;;;;21.45;11.50;;;5.60;71.60;;;;;;2240840;60;21113;-57
2022/11/21 13:23:37;;;;;;;19.02;10.82;;;5.60;71.50;;;;;;2236721;60;21175;-56
2022/11/21 13:26:55;;;;;;;18.85;11.27;;;5.60;71.40;;;;;;2215150;61;21087;-57
2022/11/21 13:29:22;;;;;;;18.17;10.93;;;5.60;71.00;;;;;;2169399;61;21150;-57
2022/11/21 13:31:50;;;;;;;16.95;9.95;;;5.60;70.50;;;;;;2215331;61;21582;-57
2022/11/21 13:34:36;;;;;;;18.17;11.35;;;5.50;70.40;;;;;;2243195;56;21079;-56
2022/11/21 13:37:04;;;;;;;18.73;11.02;;;5.50;70.30;;;;;;2215756;61;21147;-53
2022/11/21 13:39:36;;;;;;;19.65;11.15;;;5.50;70.00;;;;;;2216171;61;21541;-55
2022/11/21 13:45:42;;;;;;;19.05;11.18;;;5.50;69.80;;;;;;2328082;56;21027;-50